createdAt,value
2023-03-18T00:01:20.046Z,100434.83
2023-03-18T00:11:23.825Z,100430.32
2023-03-18T00:21:27.448Z,100422.81
2023-03-18T00:31:31.583Z,100412.52
2023-03-18T00:41:38.390Z,100394.56
2023-03-18T00:51:45.839Z,100391.36
2023-03-18T01:01:51.387Z,100377.36
2023-03-18T01:11:56.940Z,100366.20
2023-03-18T01:22:02.667Z,100363.96
2023-03-18T01:32:10.114Z,100362.29
2023-03-18T01:42:14.790Z,100359.99
2023-03-18T01:52:23.585Z,100366.52
2023-03-18T02:02:28.886Z,100363.45
2023-03-18T02:12:41.263Z,100352.39
2023-03-18T02:23:16.534Z,100352.96
2023-03-18T02:33:28.315Z,100341.82
2023-03-18T02:43:34.963Z,100342.77
2023-03-18T02:53:46.077Z,100347.84
2023-03-18T03:03:50.455Z,100348.07
2023-03-18T03:13:54.385Z,100347.35
2023-03-18T03:24:00.430Z,100341.68
2023-03-18T03:34:04.440Z,100339.11
2023-03-18T03:44:08.793Z,100340.23
2023-03-18T03:54:15.163Z,100351.11
2023-03-18T04:04:19.132Z,100338.02
2023-03-18T04:14:23.043Z,100333.60
2023-03-18T04:24:28.324Z,100339.30
2023-03-18T04:34:32.911Z,100339.69
2023-03-18T04:44:38.758Z,100334.00
2023-03-18T04:54:46.662Z,100346.11
2023-03-18T05:04:51.876Z,100340.31
2023-03-18T05:14:58.029Z,100336.65
2023-03-18T05:25:02.794Z,100323.92
2023-03-18T05:35:10.680Z,100313.30
2023-03-18T05:45:36.834Z,100323.86
2023-03-18T05:55:46.437Z,100329.21
2023-03-18T06:05:53.285Z,100339.95
2023-03-18T06:16:00.492Z,100330.95
2023-03-18T06:26:05.766Z,100324.66
2023-03-18T06:36:18.574Z,100331.52
2023-03-18T06:46:25.593Z,100320.09
2023-03-18T06:56:33.381Z,100318.36
2023-03-18T07:06:45.121Z,100311.52
2023-03-18T07:16:51.365Z,100310.17
2023-03-18T07:27:01.600Z,100309.71
2023-03-18T07:37:05.475Z,100315.33
2023-03-18T07:47:09.252Z,100297.30
2023-03-18T07:57:16.643Z,100290.63
2023-03-18T08:07:20.850Z,100284.31
2023-03-18T08:17:28.579Z,100277.63
2023-03-18T08:27:32.175Z,100273.45
2023-03-18T08:37:38.518Z,100272.83
2023-03-18T08:47:42.260Z,100265.38
2023-03-18T08:57:46.021Z,100258.05
2023-03-18T09:07:49.892Z,100263.83
2023-03-18T09:18:10.239Z,100248.02
2023-03-18T09:28:16.885Z,100245.94
2023-03-18T09:38:21.265Z,100250.81
2023-03-18T09:48:34.853Z,100239.31
2023-03-18T09:58:57.964Z,100227.30
2023-03-18T10:09:11.165Z,100223.17
2023-03-18T10:19:15.569Z,100214.19
2023-03-18T10:29:48.482Z,100209.91
2023-03-18T10:39:53.900Z,100201.28
2023-03-18T10:50:46.572Z,100189.52
2023-03-18T11:00:52.098Z,100184.40
2023-03-18T11:10:55.865Z,100180.36
2023-03-18T11:21:01.579Z,100180.02
2023-03-18T11:31:08.141Z,100167.61
2023-03-18T11:41:19.526Z,100151.45
2023-03-18T11:51:34.466Z,100138.89
2023-03-18T12:02:12.496Z,100121.24
2023-03-18T12:12:32.043Z,100113.16
2023-03-18T12:22:39.541Z,100099.61
2023-03-18T12:33:06.654Z,100079.93
2023-03-18T12:43:55.129Z,100066.94
2023-03-18T12:54:11.013Z,100047.59
2023-03-18T13:04:25.277Z,100034.44
2023-03-18T13:15:10.526Z,100024.65
2023-03-18T13:25:37.562Z,100028.67
2023-03-18T13:36:03.564Z,100025.75
2023-03-18T13:46:28.580Z,100011.95
2023-03-18T13:56:47.717Z,99997.20
2023-03-18T14:07:19.407Z,99994.86
2023-03-18T14:17:47.552Z,100003.14
2023-03-18T14:27:59.487Z,100011.52
2023-03-18T14:38:26.649Z,99998.50
2023-03-18T14:48:33.854Z,99999.88
2023-03-18T14:58:39.492Z,100001.34
2023-03-18T15:08:52.741Z,99996.70
2023-03-18T15:18:56.404Z,100002.50
2023-03-18T15:29:29.496Z,100000.52
2023-03-18T15:39:37.687Z,100014.06
2023-03-18T15:49:54.985Z,100028.45
2023-03-18T16:00:00.411Z,100036.34
2023-03-18T16:10:04.366Z,100047.61
2023-03-18T16:20:21.932Z,100056.14
2023-03-18T16:30:29.582Z,100058.69
2023-03-18T16:40:34.930Z,100055.73
2023-03-18T16:50:43.007Z,100046.73
2023-03-18T17:00:48.425Z,100056.31
2023-03-18T17:10:58.631Z,100061.86
2023-03-18T17:21:05.660Z,100064.48
2023-03-18T17:31:14.387Z,100064.08
2023-03-18T17:41:21.330Z,100067.27
2023-03-18T17:51:27.750Z,100061.04
2023-03-18T18:01:31.526Z,100066.80
2023-03-18T18:11:40.262Z,100075.77
2023-03-18T18:21:46.554Z,100073.19
2023-03-18T18:31:51.884Z,100071.86
2023-03-18T18:41:59.299Z,100076.52
2023-03-18T18:52:03.310Z,100069.98
2023-03-18T19:02:31.441Z,100070.88
2023-03-18T19:12:36.982Z,100073.52
2023-03-18T19:22:43.484Z,100071.33
2023-03-18T19:32:47.333Z,100072.46
2023-03-18T19:42:51.444Z,100073.06
2023-03-18T19:52:56.593Z,100074.28
2023-03-18T20:03:03.095Z,100071.11
2023-03-18T20:13:08.596Z,100074.06
2023-03-18T20:23:22.606Z,100073.62
2023-03-18T20:33:28.112Z,100068.39
2023-03-18T20:43:32.434Z,100072.84
2023-03-18T20:53:40.742Z,100080.79
2023-03-18T21:03:45.176Z,100076.44
2023-03-18T21:13:51.750Z,100071.50
2023-03-18T21:24:01.205Z,100067.77
2023-03-18T21:34:06.031Z,100066.38
2023-03-18T21:44:13.498Z,100065.92
2023-03-18T21:54:19.000Z,100065.91
2023-03-18T22:04:26.684Z,100063.91
2023-03-18T22:14:30.359Z,100059.77
2023-03-18T22:24:34.060Z,100053.66
2023-03-18T22:34:39.181Z,100058.78
2023-03-18T22:44:42.967Z,100060.17
2023-03-18T22:54:47.639Z,100062.88
2023-03-18T23:04:54.425Z,100058.95
2023-03-18T23:14:59.182Z,100054.89
2023-03-18T23:25:07.348Z,100044.35
2023-03-18T23:35:10.906Z,100041.30
2023-03-18T23:45:17.521Z,100037.78
2023-03-18T23:55:33.996Z,100040.18
